createdAt,value
2023-01-13T00:00:32.942Z,100414.50
2023-01-13T00:02:59.647Z,100404.66
2023-01-13T00:05:26.663Z,100417.72
2023-01-13T00:07:53.225Z,100421.50
2023-01-13T00:10:19.774Z,100407.31
2023-01-13T00:12:46.316Z,100400.69
2023-01-13T00:15:13.346Z,100400.34
2023-01-13T00:17:39.980Z,100385.28
2023-01-13T00:20:07.439Z,100372.97
2023-01-13T00:22:34.968Z,100382.22
2023-01-13T00:25:01.871Z,100379.50
2023-01-13T00:27:29.125Z,100372.66
2023-01-13T00:29:55.599Z,100373.16
2023-01-13T00:32:22.750Z,100364.38
2023-01-13T00:34:49.230Z,100361.09
2023-01-13T00:37:15.798Z,100358.34
2023-01-13T00:39:42.330Z,100357.75
2023-01-13T00:42:27.288Z,100362.88
2023-01-13T00:44:53.792Z,100369.41
2023-01-13T00:47:20.259Z,100361.94
2023-01-13T00:49:46.718Z,100357.59
2023-01-13T00:52:13.181Z,100364.09
2023-01-13T00:54:39.939Z,100367.91
2023-01-13T00:57:06.392Z,100360.31
2023-01-13T00:59:32.855Z,100369.00
2023-01-13T01:01:59.428Z,100365.09
2023-01-13T01:04:25.975Z,100368.88
2023-01-13T01:06:52.483Z,100377.56
2023-01-13T01:09:19.004Z,100383.59
2023-01-13T01:11:45.619Z,100370.78
2023-01-13T01:14:13.269Z,100384.66
2023-01-13T01:16:41.242Z,100382.41
2023-01-13T01:19:08.075Z,100384.66
2023-01-13T01:21:34.954Z,100376.47
2023-01-13T01:24:03.523Z,100385.97
2023-01-13T01:26:31.437Z,100389.53
2023-01-13T01:28:58.482Z,100377.78
2023-01-13T01:31:27.698Z,100394.72
2023-01-13T01:33:55.334Z,100385.47
2023-01-13T01:36:26.013Z,100377.31
2023-01-13T01:38:52.763Z,100363.94
2023-01-13T01:41:23.637Z,100374.22
2023-01-13T01:44:02.793Z,100379.69
2023-01-13T01:46:43.074Z,100381.59
2023-01-13T01:49:32.744Z,100389.53
2023-01-13T01:52:04.274Z,100377.94
2023-01-13T01:54:39.256Z,100374.13
2023-01-13T01:57:09.254Z,100377.94
2023-01-13T01:59:36.415Z,100372.16
2023-01-13T02:02:06.537Z,100360.66
2023-01-13T02:04:43.121Z,100376.44
2023-01-13T02:07:09.633Z,100358.94
2023-01-13T02:09:36.640Z,100359.38
2023-01-13T02:12:21.999Z,100371.13
2023-01-13T02:14:48.512Z,100368.88
2023-01-13T02:17:21.010Z,100374.34
2023-01-13T02:20:11.964Z,100372.09
2023-01-13T02:22:56.560Z,100370.22
2023-01-13T02:25:52.172Z,100378.03
2023-01-13T02:29:00.417Z,100377.22
2023-01-13T02:31:42.089Z,100376.88
2023-01-13T02:34:22.167Z,100376.22
2023-01-13T02:36:59.832Z,100373.50
2023-01-13T02:39:49.383Z,100372.94
2023-01-13T02:42:45.165Z,100357.88
2023-01-13T02:45:29.510Z,100354.94
2023-01-13T02:47:58.478Z,100339.66
2023-01-13T02:50:32.404Z,100348.91
2023-01-13T02:53:05.169Z,100351.03
2023-01-13T02:55:36.532Z,100346.91
2023-01-13T02:58:08.013Z,100345.03
2023-01-13T03:00:36.981Z,100341.19
2023-01-13T03:03:03.735Z,100340.75
2023-01-13T03:05:32.708Z,100347.25
2023-01-13T03:08:35.998Z,100343.13
2023-01-13T03:11:09.996Z,100354.38
2023-01-13T03:13:45.488Z,100336.34
2023-01-13T03:16:38.312Z,100336.34
2023-01-13T03:19:15.387Z,100316.22
2023-01-13T03:21:59.731Z,100323.31
2023-01-13T03:24:42.942Z,100323.56
2023-01-13T03:27:15.068Z,100315.97
2023-01-13T03:30:00.600Z,100312.75
2023-01-13T03:32:35.353Z,100310.84
2023-01-13T03:35:10.650Z,100317.97
2023-01-13T03:37:41.149Z,100318.34
2023-01-13T03:40:14.309Z,100315.84
2023-01-13T03:43:04.156Z,100307.22
2023-01-13T03:45:34.113Z,100312.66
2023-01-13T03:48:06.570Z,100308.03
2023-01-13T03:50:39.801Z,100311.00
2023-01-13T03:53:21.620Z,100292.50
2023-01-13T03:55:55.349Z,100309.69
2023-01-13T03:58:25.979Z,100315.13
2023-01-13T04:01:05.188Z,100317.63
2023-01-13T04:03:38.283Z,100352.81
2023-01-13T04:06:15.863Z,100320.91
2023-01-13T04:08:55.831Z,100336.44
2023-01-13T04:11:34.146Z,100374.34
2023-01-13T04:14:04.381Z,100346.97
2023-01-13T04:16:32.495Z,100345.00
2023-01-13T04:18:59.029Z,100357.81
2023-01-13T04:21:26.001Z,100352.81
2023-01-13T04:23:53.878Z,100360.38
2023-01-13T04:26:20.567Z,100357.66
2023-01-13T04:28:47.086Z,100368.69
2023-01-13T04:31:13.601Z,100374.97
2023-01-13T04:33:40.184Z,100367.53
2023-01-13T04:36:07.232Z,100362.31
2023-01-13T04:38:33.774Z,100354.41
2023-01-13T04:41:00.326Z,100350.00
2023-01-13T04:43:26.819Z,100369.31
2023-01-13T04:45:53.425Z,100357.56
2023-01-13T04:48:19.977Z,100348.00
2023-01-13T04:50:46.478Z,100342.78
2023-01-13T04:53:12.961Z,100329.94
2023-01-13T04:55:39.521Z,100319.16
2023-01-13T04:58:08.282Z,100316.91
2023-01-13T05:00:35.107Z,100315.03
2023-01-13T05:03:02.299Z,100322.00
2023-01-13T05:05:30.440Z,100314.34
2023-01-13T05:07:57.875Z,100326.28
2023-01-13T05:10:24.730Z,100314.22
2023-01-13T05:13:09.587Z,100323.22
2023-01-13T05:15:54.628Z,100318.00
2023-01-13T05:18:21.576Z,100329.38
2023-01-13T05:20:48.093Z,100326.06
2023-01-13T05:23:33.060Z,100329.84
2023-01-13T05:25:59.588Z,100328.19
2023-01-13T05:28:26.123Z,100330.34
2023-01-13T05:30:52.747Z,100337.69
2023-01-13T05:33:22.893Z,100343.34
2023-01-13T05:35:49.680Z,100343.34
2023-01-13T05:38:17.947Z,100353.66
2023-01-13T05:41:03.712Z,100351.28
2023-01-13T05:43:30.509Z,100349.97
2023-01-13T05:46:01.058Z,100361.09
2023-01-13T05:48:32.585Z,100370.56
2023-01-13T05:50:59.663Z,100374.94
2023-01-13T05:53:26.886Z,100377.66
2023-01-13T05:55:53.999Z,100381.22
2023-01-13T05:58:22.110Z,100387.97
2023-01-13T06:00:49.225Z,100378.13
2023-01-13T06:03:16.379Z,100387.38
2023-01-13T06:05:43.660Z,100382.97
2023-01-13T06:08:10.196Z,100385.69
2023-01-13T06:10:37.077Z,100381.56
2023-01-13T06:13:04.192Z,100391.63
2023-01-13T06:15:31.306Z,100384.50
2023-01-13T06:17:58.185Z,100377.44
2023-01-13T06:20:25.117Z,100385.47
2023-01-13T06:22:53.430Z,100395.88
2023-01-13T06:25:29.062Z,100388.78
2023-01-13T06:27:59.716Z,100386.78
2023-01-13T06:30:35.198Z,100394.94
2023-01-13T06:33:04.814Z,100386.53
2023-01-13T06:35:35.265Z,100387.59
2023-01-13T06:38:05.577Z,100391.41
2023-01-13T06:40:32.056Z,100376.25
2023-01-13T06:43:17.448Z,100404.50
2023-01-13T06:45:48.479Z,100416.72
2023-01-13T06:48:15.541Z,100403.34
2023-01-13T06:50:42.273Z,100397.53
2023-01-13T06:53:09.684Z,100390.78
2023-01-13T06:55:36.777Z,100385.81
2023-01-13T06:58:03.891Z,100390.22
2023-01-13T07:00:32.312Z,100383.09
2023-01-13T07:03:19.135Z,100410.31
2023-01-13T07:05:52.746Z,100406.53
2023-01-13T07:08:19.489Z,100400.00
2023-01-13T07:10:46.137Z,100398.13
2023-01-13T07:13:31.061Z,100419.03
2023-01-13T07:16:00.346Z,100416.94
2023-01-13T07:18:31.244Z,100412.31
2023-01-13T07:21:00.374Z,100420.22
2023-01-13T07:23:28.882Z,100412.81
2023-01-13T07:25:56.764Z,100434.09
2023-01-13T07:28:24.751Z,100410.44
2023-01-13T07:30:51.678Z,100405.91
2023-01-13T07:33:18.564Z,100416.56
2023-01-13T07:35:45.738Z,100425.09
2023-01-13T07:38:12.313Z,100420.22
2023-01-13T07:40:40.630Z,100422.84
2023-01-13T07:43:25.957Z,100438.91
2023-01-13T07:45:58.574Z,100435.38
2023-01-13T07:48:26.471Z,100426.63
2023-01-13T07:50:53.417Z,100433.13
2023-01-13T07:53:20.062Z,100421.66
2023-01-13T07:55:46.528Z,100434.22
2023-01-13T07:58:13.026Z,100435.84
2023-01-13T08:00:39.769Z,100429.56
2023-01-13T08:03:06.378Z,100426.28
2023-01-13T08:05:35.409Z,100438.56
2023-01-13T08:08:02.125Z,100435.38
2023-01-13T08:10:28.650Z,100428.50
2023-01-13T08:13:13.470Z,100440.81
2023-01-13T08:15:40.043Z,100448.97
2023-01-13T08:18:06.577Z,100445.19
2023-01-13T08:20:33.136Z,100468.00
2023-01-13T08:23:00.672Z,100452.88
2023-01-13T08:25:29.059Z,100451.59
2023-01-13T08:27:56.900Z,100440.34
2023-01-13T08:30:23.480Z,100449.09
2023-01-13T08:32:50.751Z,100457.25
2023-01-13T08:35:17.876Z,100452.28
2023-01-13T08:37:46.006Z,100459.50
2023-01-13T08:40:14.291Z,100470.53
2023-01-13T08:42:40.771Z,100463.41
2023-01-13T08:45:08.926Z,100485.66
2023-01-13T08:47:35.471Z,100470.53
2023-01-13T08:50:02.016Z,100462.72
2023-01-13T08:52:29.832Z,100471.13
2023-01-13T08:54:56.392Z,100483.66
2023-01-13T08:57:22.930Z,100499.06
2023-01-13T08:59:49.418Z,100483.56
2023-01-13T09:02:18.448Z,100486.28
2023-01-13T09:04:45.663Z,100500.81
2023-01-13T09:07:12.316Z,100499.78
2023-01-13T09:09:38.919Z,100495.50
2023-01-13T09:12:24.809Z,100490.06
2023-01-13T09:14:51.868Z,100508.16
2023-01-13T09:17:18.610Z,100494.56
2023-01-13T09:19:45.108Z,100490.44
2023-01-13T09:22:15.764Z,100500.47
2023-01-13T09:24:42.276Z,100498.38
2023-01-13T09:27:14.435Z,100498.72
2023-01-13T09:29:41.440Z,100495.16
2023-01-13T09:32:12.207Z,100502.50
2023-01-13T09:34:57.407Z,100512.34
2023-01-13T09:37:23.951Z,100526.75
2023-01-13T09:39:50.513Z,100500.00
2023-01-13T09:42:46.145Z,100511.72
2023-01-13T09:45:14.813Z,100524.03
2023-01-13T09:47:57.590Z,100535.03
2023-01-13T09:50:24.103Z,100536.72
2023-01-13T09:52:50.881Z,100537.19
2023-01-13T09:55:24.369Z,100555.78
2023-01-13T09:57:50.848Z,100549.72
2023-01-13T10:00:47.221Z,100558.97
2023-01-13T10:03:28.413Z,100573.97
2023-01-13T10:06:06.827Z,100553.88
2023-01-13T10:08:41.762Z,100566.03
2023-01-13T10:11:36.243Z,100565.81
2023-01-13T10:14:28.313Z,100570.78
2023-01-13T10:16:57.650Z,100569.22
2023-01-13T10:19:38.797Z,100597.75
2023-01-13T10:22:23.370Z,100570.16
2023-01-13T10:24:49.767Z,100571.09
2023-01-13T10:27:33.055Z,100585.41
2023-01-13T10:29:59.554Z,100578.78
2023-01-13T10:32:26.064Z,100595.09
2023-01-13T10:34:56.794Z,100595.91
2023-01-13T10:37:26.388Z,100599.34
2023-01-13T10:40:02.048Z,100599.56
2023-01-13T10:42:28.778Z,100585.38
2023-01-13T10:44:59.875Z,100605.69
2023-01-13T10:47:35.333Z,100615.53
2023-01-13T10:50:10.907Z,100615.06
2023-01-13T10:52:54.789Z,100601.09
2023-01-13T10:55:33.353Z,100604.63
2023-01-13T10:58:20.716Z,100603.59
2023-01-13T11:00:49.229Z,100624.53
2023-01-13T11:03:17.226Z,100601.91
2023-01-13T11:05:58.022Z,100612.81
2023-01-13T11:08:27.695Z,100606.53
2023-01-13T11:10:59.385Z,100602.97
2023-01-13T11:14:02.382Z,100595.19
2023-01-13T11:16:29.017Z,100599.78
2023-01-13T11:19:02.524Z,100609.03
2023-01-13T11:21:37.896Z,100608.56
2023-01-13T11:24:15.425Z,100628.34
2023-01-13T11:26:56.821Z,100630.59
2023-01-13T11:29:41.338Z,100619.84
2023-01-13T11:32:20.062Z,100607.56
2023-01-13T11:34:52.654Z,100608.38
2023-01-13T11:37:28.664Z,100607.66
2023-01-13T11:40:05.781Z,100622.94
2023-01-13T11:42:37.968Z,100611.22
2023-01-13T11:45:34.813Z,100612.69
2023-01-13T11:48:02.494Z,100628.88
2023-01-13T11:50:34.912Z,100641.56
2023-01-13T11:53:04.259Z,100641.06
2023-01-13T11:56:01.955Z,100636.13
2023-01-13T11:58:52.841Z,100672.38
2023-01-13T12:01:37.635Z,100638.88
2023-01-13T12:04:31.756Z,100649.75
2023-01-13T12:07:22.907Z,100654.63
2023-01-13T12:10:08.953Z,100655.44
2023-01-13T12:12:47.561Z,100659.81
2023-01-13T12:15:32.562Z,100666.91
2023-01-13T12:18:05.081Z,100668.81
2023-01-13T12:20:58.514Z,100670.69
2023-01-13T12:23:28.852Z,100697.72
2023-01-13T12:26:00.957Z,100682.78
2023-01-13T12:28:40.224Z,100684.69
2023-01-13T12:31:09.413Z,100685.28
2023-01-13T12:34:02.139Z,100690.50
2023-01-13T12:36:48.870Z,100682.94
2023-01-13T12:39:40.044Z,100692.28
2023-01-13T12:42:47.309Z,100697.75
2023-01-13T12:45:13.787Z,100678.47
2023-01-13T12:47:46.237Z,100691.81
2023-01-13T12:50:28.019Z,100720.88
2023-01-13T12:52:59.460Z,100713.75
2023-01-13T12:55:35.303Z,100713.53
2023-01-13T12:58:04.701Z,100700.03
2023-01-13T13:00:40.233Z,100725.72
2023-01-13T13:03:13.622Z,100725.06
2023-01-13T13:06:09.657Z,100724.72
2023-01-13T13:09:13.261Z,100744.38
2023-01-13T13:12:02.935Z,100735.59
2023-01-13T13:14:41.887Z,100748.38
2023-01-13T13:17:41.304Z,100739.16
2023-01-13T13:20:46.110Z,100747.78
2023-01-13T13:23:37.931Z,100760.25
2023-01-13T13:26:26.208Z,100761.16
2023-01-13T13:29:08.673Z,100764.13
2023-01-13T13:31:44.190Z,100751.09
2023-01-13T13:34:10.646Z,100758.06
2023-01-13T13:36:55.463Z,100788.38
2023-01-13T13:39:44.048Z,100784.63
2023-01-13T13:42:37.487Z,100770.34
2023-01-13T13:45:34.549Z,100776.16
2023-01-13T13:48:20.943Z,100755.63
2023-01-13T13:50:49.573Z,100778.72
2023-01-13T13:53:19.026Z,100804.81
2023-01-13T13:55:57.407Z,100802.34
2023-01-13T13:58:26.302Z,100806.22
2023-01-13T14:00:54.680Z,100815.13
2023-01-13T14:03:24.973Z,100837.75
2023-01-13T14:06:03.314Z,100844.00
2023-01-13T14:08:39.653Z,100839.75
2023-01-13T14:11:30.761Z,100838.69
2023-01-13T14:14:06.613Z,100859.44
2023-01-13T14:16:37.944Z,100837.03
2023-01-13T14:19:04.553Z,100846.88
2023-01-13T14:21:31.517Z,100847.81
2023-01-13T14:24:13.999Z,100848.66
2023-01-13T14:26:40.659Z,100867.94
2023-01-13T14:29:07.474Z,100864.16
2023-01-13T14:31:34.845Z,100880.25
2023-01-13T14:34:03.512Z,100873.84
2023-01-13T14:36:51.232Z,100876.69
2023-01-13T14:39:17.805Z,100873.38
2023-01-13T14:41:48.000Z,100891.03
2023-01-13T14:44:31.526Z,100904.88
2023-01-13T14:47:00.751Z,100902.63
2023-01-13T14:50:00.935Z,100910.09
2023-01-13T14:52:30.056Z,100908.81
2023-01-13T14:55:05.381Z,100900.84
2023-01-13T14:57:33.768Z,100913.06
2023-01-13T15:00:15.463Z,100913.63
2023-01-13T15:02:48.003Z,100916.63
2023-01-13T15:05:17.730Z,100929.19
2023-01-13T15:08:09.871Z,100930.59
2023-01-13T15:10:38.369Z,100941.56
2023-01-13T15:13:07.085Z,100935.00
2023-01-13T15:15:39.175Z,100940.66
2023-01-13T15:18:13.113Z,100938.88
2023-01-13T15:20:40.927Z,100941.34
2023-01-13T15:23:07.493Z,100948.25
2023-01-13T15:25:36.494Z,100956.28
2023-01-13T15:28:04.560Z,100966.13
2023-01-13T15:30:31.552Z,100960.41
2023-01-13T15:32:59.167Z,100986.63
2023-01-13T15:35:28.267Z,101001.28
2023-01-13T15:37:56.304Z,100986.00
2023-01-13T15:40:26.334Z,100987.06
2023-01-13T15:43:11.151Z,101005.06
2023-01-13T15:45:56.528Z,100998.16
2023-01-13T15:48:24.710Z,100996.09
2023-01-13T15:50:51.439Z,101003.22
2023-01-13T15:53:18.141Z,101016.63
2023-01-13T15:55:49.041Z,101007.84
2023-01-13T15:58:28.408Z,101025.22
2023-01-13T16:00:55.604Z,101022.03
2023-01-13T16:03:22.295Z,101011.97
2023-01-13T16:05:49.191Z,101011.34
2023-01-13T16:08:21.659Z,101016.75
2023-01-13T16:10:49.583Z,101017.16
2023-01-13T16:13:16.997Z,101015.28
2023-01-13T16:15:46.911Z,101040.19
2023-01-13T16:18:19.303Z,101032.47
2023-01-13T16:20:46.620Z,101033.09
2023-01-13T16:23:13.524Z,101036.41
2023-01-13T16:25:40.674Z,101056.50
2023-01-13T16:28:07.231Z,101050.66
2023-01-13T16:30:36.121Z,101065.72
2023-01-13T16:33:03.355Z,101069.50
2023-01-13T16:35:31.923Z,101093.81
2023-01-13T16:37:59.781Z,101062.16
2023-01-13T16:40:31.181Z,101071.16
2023-01-13T16:42:57.977Z,101058.38
2023-01-13T16:45:25.035Z,101089.78
2023-01-13T16:47:51.601Z,101072.38
2023-01-13T16:50:40.727Z,101087.91
2023-01-13T16:53:11.235Z,101084.56
2023-01-13T16:55:38.832Z,101098.63
2023-01-13T16:58:06.237Z,101098.19
2023-01-13T17:00:32.935Z,101106.38
2023-01-13T17:03:01.843Z,101083.06
2023-01-13T17:05:28.651Z,101102.16
2023-01-13T17:07:55.360Z,101109.69
2023-01-13T17:10:24.572Z,101111.59
2023-01-13T17:12:51.470Z,101101.97
2023-01-13T17:15:20.099Z,101127.34
2023-01-13T17:17:51.735Z,101113.09
2023-01-13T17:20:19.143Z,101116.44
2023-01-13T17:22:49.792Z,101125.44
2023-01-13T17:25:21.444Z,101130.28
2023-01-13T17:27:47.913Z,101137.78
2023-01-13T17:30:14.621Z,101130.66
2023-01-13T17:32:41.741Z,101144.53
2023-01-13T17:35:08.871Z,101151.63
2023-01-13T17:37:35.627Z,101162.09
2023-01-13T17:40:02.217Z,101146.78
2023-01-13T17:42:29.575Z,101148.31
2023-01-13T17:44:56.355Z,101154.81
2023-01-13T17:47:22.861Z,101148.75
2023-01-13T17:49:49.452Z,101157.53
2023-01-13T17:52:16.012Z,101156.09
2023-01-13T17:54:43.709Z,101149.56
2023-01-13T17:57:10.721Z,101156.53
2023-01-13T17:59:37.226Z,101175.63
2023-01-13T18:02:04.723Z,101168.69
2023-01-13T18:04:31.473Z,101150.91
2023-01-13T18:06:58.083Z,101158.06
2023-01-13T18:09:25.788Z,101161.81
2023-01-13T18:11:52.455Z,101170.38
2023-01-13T18:14:22.236Z,101222.16
2023-01-13T18:16:48.798Z,101196.41
2023-01-13T18:19:33.816Z,101198.31
2023-01-13T18:22:18.659Z,101194.19
2023-01-13T18:25:04.151Z,101195.09
2023-01-13T18:27:35.864Z,101194.31
2023-01-13T18:30:04.519Z,101197.88
2023-01-13T18:32:33.236Z,101204.22
2023-01-13T18:35:06.635Z,101208.00
2023-01-13T18:37:35.950Z,101200.88
2023-01-13T18:40:03.408Z,101206.09
2023-01-13T18:42:48.454Z,101211.75
2023-01-13T18:45:14.992Z,101210.72
2023-01-13T18:47:42.238Z,101207.34
2023-01-13T18:50:12.161Z,101215.25
2023-01-13T18:52:38.659Z,101215.91
2023-01-13T18:55:05.448Z,101222.53
2023-01-13T18:57:32.080Z,101228.22
2023-01-13T18:59:58.610Z,101248.13
2023-01-13T19:02:28.268Z,101238.97
2023-01-13T19:04:54.967Z,101243.97
2023-01-13T19:07:28.178Z,101254.47
2023-01-13T19:09:55.888Z,101251.81
2023-01-13T19:12:26.316Z,101268.13
2023-01-13T19:14:56.931Z,101268.34
2023-01-13T19:17:25.138Z,101263.97
2023-01-13T19:19:54.819Z,101271.31
2023-01-13T19:22:30.306Z,101274.84
2023-01-13T19:24:57.570Z,101276.53
2023-01-13T19:27:24.590Z,101275.50
2023-01-13T19:29:53.475Z,101273.81
2023-01-13T19:32:23.185Z,101285.94
2023-01-13T19:34:51.026Z,101284.50
2023-01-13T19:37:19.058Z,101285.16
2023-01-13T19:39:45.651Z,101278.03
2023-01-13T19:42:31.184Z,101287.06
2023-01-13T19:45:16.712Z,101294.19
2023-01-13T19:47:45.337Z,101291.66
2023-01-13T19:50:13.430Z,101279.94
2023-01-13T19:52:40.087Z,101274.94
2023-01-13T19:55:07.095Z,101283.72
2023-01-13T19:57:33.617Z,101279.09
2023-01-13T20:00:00.232Z,101295.03
2023-01-13T20:02:31.461Z,101296.47
2023-01-13T20:05:00.829Z,101309.88
2023-01-13T20:07:31.467Z,101324.94
2023-01-13T20:09:58.052Z,101317.41
2023-01-13T20:12:25.969Z,101327.66
2023-01-13T20:14:52.623Z,101323.69
2023-01-13T20:17:21.048Z,101320.97
2023-01-13T20:19:47.509Z,101319.91
2023-01-13T20:22:14.116Z,101318.66
2023-01-13T20:24:40.674Z,101317.63
2023-01-13T20:27:07.433Z,101332.66
2023-01-13T20:29:33.999Z,101331.00
2023-01-13T20:32:00.688Z,101317.81
2023-01-13T20:34:28.522Z,101330.38
2023-01-13T20:36:55.243Z,101341.47
2023-01-13T20:39:27.367Z,101345.03
2023-01-13T20:42:13.076Z,101354.44
2023-01-13T20:44:39.681Z,101343.56
2023-01-13T20:47:07.070Z,101346.06
2023-01-13T20:49:35.907Z,101349.19
2023-01-13T20:52:05.636Z,101359.44
2023-01-13T20:54:32.118Z,101361.75
2023-01-13T20:57:00.335Z,101354.81
2023-01-13T20:59:26.818Z,101368.66
2023-01-13T21:01:53.305Z,101368.63
2023-01-13T21:04:19.837Z,101374.28
2023-01-13T21:06:48.103Z,101369.69
2023-01-13T21:09:14.632Z,101370.94
2023-01-13T21:11:59.529Z,101375.75
2023-01-13T21:14:45.855Z,101383.28
2023-01-13T21:17:32.725Z,101379.53
2023-01-13T21:19:59.631Z,101391.66
2023-01-13T21:22:26.689Z,101393.34
2023-01-13T21:24:53.333Z,101406.13
2023-01-13T21:27:20.494Z,101422.22
2023-01-13T21:29:46.998Z,101405.47
2023-01-13T21:32:13.532Z,101398.97
2023-01-13T21:34:40.071Z,101404.84
2023-01-13T21:37:06.636Z,101398.78
2023-01-13T21:39:33.247Z,101398.34
2023-01-13T21:42:18.065Z,101398.34
2023-01-13T21:45:03.337Z,101391.66
2023-01-13T21:47:48.416Z,101412.59
2023-01-13T21:50:20.621Z,101410.72
2023-01-13T21:52:48.560Z,101415.53
2023-01-13T21:55:26.934Z,101405.72
2023-01-13T21:57:59.303Z,101413.69
2023-01-13T22:00:28.546Z,101413.47
2023-01-13T22:02:55.517Z,101414.09
2023-01-13T22:05:24.298Z,101427.09
2023-01-13T22:07:51.185Z,101417.88
2023-01-13T22:10:24.086Z,101422.69
2023-01-13T22:12:54.971Z,101455.78
2023-01-13T22:15:26.049Z,101445.97
2023-01-13T22:17:54.185Z,101455.38
2023-01-13T22:20:21.503Z,101456.84
2023-01-13T22:22:48.269Z,101452.88
2023-01-13T22:25:16.309Z,101457.50
2023-01-13T22:27:44.575Z,101463.75
2023-01-13T22:30:17.632Z,101464.19
2023-01-13T22:32:45.247Z,101458.31
2023-01-13T22:35:12.898Z,101471.09
2023-01-13T22:37:39.405Z,101466.91
2023-01-13T22:40:08.346Z,101457.91
2023-01-13T22:42:39.312Z,101449.13
2023-01-13T22:45:07.838Z,101458.75
2023-01-13T22:47:34.592Z,101447.22
2023-01-13T22:50:01.114Z,101451.84
2023-01-13T22:52:28.482Z,101460.03
2023-01-13T22:54:55.018Z,101454.78
2023-01-13T22:57:21.961Z,101447.03
2023-01-13T22:59:50.326Z,101457.50
2023-01-13T23:02:16.850Z,101466.25
2023-01-13T23:04:43.390Z,101471.72
2023-01-13T23:07:09.927Z,101480.94
2023-01-13T23:09:36.411Z,101474.84
2023-01-13T23:12:02.979Z,101480.94
2023-01-13T23:14:29.486Z,101472.97
2023-01-13T23:16:56.154Z,101471.94
2023-01-13T23:19:22.836Z,101478.84
2023-01-13T23:21:49.383Z,101476.34
2023-01-13T23:24:15.918Z,101473.81
2023-01-13T23:26:42.436Z,101474.00
2023-01-13T23:29:12.061Z,101478.84
2023-01-13T23:31:39.264Z,101470.88
2023-01-13T23:34:05.805Z,101463.13
2023-01-13T23:36:32.423Z,101468.59
2023-01-13T23:38:59.381Z,101464.59
2023-01-13T23:41:26.648Z,101457.47
2023-01-13T23:43:56.013Z,101466.72
2023-01-13T23:46:23.410Z,101455.00
2023-01-13T23:48:50.807Z,101456.88
2023-01-13T23:51:18.017Z,101452.66
2023-01-13T23:53:46.980Z,101455.81
2023-01-13T23:56:16.611Z,101462.72
2023-01-13T23:58:43.945Z,101460.41
